createdAt,value
2018-01-20T00:00:18.938Z,4.9
2018-01-20T00:02:18.692Z,3.9
2018-01-20T00:04:19.454Z,4.8
2018-01-20T00:06:18.674Z,5
2018-01-20T00:08:19.428Z,4.4
2018-01-20T00:10:18.682Z,4.2
2018-01-20T00:12:19.469Z,4.3
2018-01-20T00:14:19.287Z,3.9
2018-01-20T00:16:19.336Z,5.2
2018-01-20T00:18:19.176Z,4.7
2018-01-20T00:20:18.929Z,4.7
2018-01-20T00:22:18.683Z,5.1
2018-01-20T00:24:19.447Z,4.1
2018-01-20T00:26:19.198Z,4.6
2018-01-20T00:28:18.989Z,4.8
2018-01-20T00:30:18.727Z,5
2018-01-20T00:32:18.487Z,3.8
2018-01-20T00:34:19.227Z,5.1
2018-01-20T00:36:19.045Z,3.9
2018-01-20T00:38:18.801Z,4
2018-01-20T00:40:19.213Z,4.2
2018-01-20T00:42:18.983Z,4.8
2018-01-20T00:44:18.736Z,4.1
2018-01-20T00:46:19.316Z,4.7
2018-01-20T00:48:19.076Z,4.4
2018-01-20T00:50:18.844Z,3.9
2018-01-20T00:52:19.381Z,4.5
2018-01-20T00:54:19.103Z,4.2
2018-01-20T00:56:19.181Z,4
2018-01-20T00:58:18.959Z,3.8
2018-01-20T01:00:18.756Z,3.9
2018-01-20T01:02:18.514Z,4.3
2018-01-20T01:04:19.286Z,4.4
2018-01-20T01:06:18.872Z,4.5
2018-01-20T01:08:18.605Z,4.1
2018-01-20T01:10:18.941Z,4.6
2018-01-20T01:12:18.979Z,5
2018-01-20T01:14:18.739Z,4.5
2018-01-20T01:16:19.372Z,3.6
2018-01-20T01:18:19.239Z,5.5
2018-01-20T01:20:19.060Z,3.3
2018-01-20T01:22:18.817Z,4.2
2018-01-20T01:24:18.568Z,4.6
2018-01-20T01:26:19.105Z,4.1
2018-01-20T01:28:18.861Z,4.5
2018-01-20T01:30:18.630Z,4.1
2018-01-20T01:32:19.402Z,4.2
2018-01-20T01:34:19.163Z,4.7
2018-01-20T01:36:18.788Z,4.9
2018-01-20T01:38:18.552Z,4.7
2018-01-20T01:40:18.892Z,4.4
2018-01-20T01:42:18.635Z,4.4
2018-01-20T01:44:19.392Z,5.6
2018-01-20T01:46:19.519Z,5.6
2018-01-20T01:48:19.267Z,4.8
2018-01-20T01:50:19.016Z,4.4
2018-01-20T01:52:18.764Z,5.2
2018-01-20T01:54:18.531Z,4
2018-01-20T01:56:19.208Z,4.4
2018-01-20T01:58:18.957Z,4.6
2018-01-20T02:00:18.720Z,5.1
2018-01-20T02:02:19.481Z,5.3
2018-01-20T02:04:19.253Z,4.5
2018-01-20T02:06:19.450Z,4.8
2018-01-20T02:08:19.187Z,4.1
2018-01-20T02:10:19.426Z,4.8
2018-01-20T02:12:19.163Z,4.9
2018-01-20T02:14:18.903Z,5.3
2018-01-20T02:16:19.475Z,4.6
2018-01-20T02:18:19.303Z,5.5
2018-01-20T02:20:19.058Z,5.4
2018-01-20T02:22:18.716Z,4.9
2018-01-20T02:24:18.462Z,4.8
2018-01-20T02:26:19.012Z,4.8
2018-01-20T02:28:18.754Z,4.8
2018-01-20T02:30:18.516Z,5.1
2018-01-20T02:32:19.275Z,4.6
2018-01-20T02:34:19.043Z,5.2
2018-01-20T02:36:18.627Z,5.6
2018-01-20T02:38:19.367Z,4.4
2018-01-20T02:40:18.708Z,4.5
2018-01-20T02:42:19.463Z,4.9
2018-01-20T02:44:19.215Z,4.6
2018-01-20T02:46:19.322Z,4.6
2018-01-20T02:48:19.086Z,5
2018-01-20T02:50:18.836Z,6
2018-01-20T02:52:19.459Z,6
2018-01-20T02:54:19.231Z,5.2
2018-01-20T02:56:19.160Z,5.2
2018-01-20T02:58:18.902Z,5.3
2018-01-20T03:00:18.648Z,4.9
2018-01-20T03:02:19.420Z,6.2
2018-01-20T03:04:19.192Z,5.6
2018-01-20T03:06:19.157Z,6.3
2018-01-20T03:08:18.941Z,6.3
2018-01-20T03:10:19.165Z,5.9
2018-01-20T03:12:18.931Z,6.2
2018-01-20T03:14:18.664Z,5.1
2018-01-20T03:16:18.829Z,5.5
2018-01-20T03:18:18.664Z,5.8
2018-01-20T03:20:19.566Z,5.3
2018-01-20T03:22:19.341Z,5.9
2018-01-20T03:24:19.110Z,5.5
2018-01-20T03:26:18.876Z,5.9
2018-01-20T03:28:18.623Z,6.4
2018-01-20T03:30:19.411Z,5.9
2018-01-20T03:32:19.173Z,5.9
2018-01-20T03:34:18.936Z,5.7
2018-01-20T03:36:18.548Z,6
2018-01-20T03:38:19.313Z,6
2018-01-20T03:40:18.627Z,5.3
2018-01-20T03:42:19.378Z,5.9
2018-01-20T03:44:19.127Z,5.9
2018-01-20T03:46:19.263Z,6.5
2018-01-20T03:48:19.050Z,6
2018-01-20T03:50:18.798Z,7.6
2018-01-20T03:52:18.559Z,5.4
2018-01-20T03:54:19.321Z,5.3
2018-01-20T03:56:18.977Z,5.1
2018-01-20T03:58:18.729Z,5.4
2018-01-20T04:00:19.658Z,5.6
2018-01-20T04:02:19.426Z,4.8
2018-01-20T04:04:19.189Z,5
2018-01-20T04:06:19.252Z,4.8
2018-01-20T04:08:18.994Z,6.5
2018-01-20T04:10:19.224Z,5.3
2018-01-20T04:12:18.983Z,5.6
2018-01-20T04:14:18.735Z,5.5
2018-01-20T04:16:19.033Z,4.7
2018-01-20T04:18:18.882Z,4.8
2018-01-20T04:20:18.692Z,5.5
2018-01-20T04:22:19.460Z,5.5
2018-01-20T04:24:19.233Z,5.2
2018-01-20T04:26:18.548Z,5
2018-01-20T04:28:19.325Z,5
2018-01-20T04:30:19.187Z,5.4
2018-01-20T04:32:18.948Z,5.4
2018-01-20T04:34:18.676Z,4.9
2018-01-20T04:36:19.381Z,5.8
2018-01-20T04:38:19.156Z,6
2018-01-20T04:40:19.394Z,5
2018-01-20T04:42:19.182Z,5.7
2018-01-20T04:44:18.950Z,6.2
2018-01-20T04:46:19.439Z,5.5
2018-01-20T04:48:19.223Z,4.7
2018-01-20T04:50:18.978Z,4.9
2018-01-20T04:52:18.756Z,5.3
2018-01-20T04:54:18.538Z,5.2
2018-01-20T04:56:18.778Z,5.4
2018-01-20T04:58:18.534Z,4.7
2018-01-20T05:00:19.286Z,5
2018-01-20T05:02:19.035Z,5.9
2018-01-20T05:04:18.788Z,6.7
2018-01-20T05:06:19.329Z,5.2
2018-01-20T05:08:19.092Z,5.5
2018-01-20T05:10:19.372Z,5.3
2018-01-20T05:12:19.139Z,5.1
2018-01-20T05:14:18.888Z,4.6
2018-01-20T05:16:19.297Z,6
2018-01-20T05:18:19.120Z,5.7
2018-01-20T05:20:18.878Z,5.5
2018-01-20T05:22:18.664Z,5.7
2018-01-20T05:24:19.427Z,5.2
2018-01-20T05:26:18.736Z,6.1
2018-01-20T05:28:18.505Z,5.3
2018-01-20T05:30:19.272Z,5.5
2018-01-20T05:32:18.883Z,5.4
2018-01-20T05:34:18.645Z,6
2018-01-20T05:36:18.522Z,5.8
2018-01-20T05:38:19.271Z,5.2
2018-01-20T05:40:18.486Z,5.3
2018-01-20T05:42:19.229Z,4.7
2018-01-20T05:44:19.005Z,4.8
2018-01-20T05:46:19.406Z,4.6
2018-01-20T05:48:19.166Z,5.6
2018-01-20T05:50:18.920Z,5.2
2018-01-20T05:52:18.651Z,4.6
2018-01-20T05:54:19.419Z,4.5
2018-01-20T05:56:19.404Z,3.7
2018-01-20T05:58:19.151Z,4
2018-01-20T06:00:18.929Z,5
2018-01-20T06:02:18.669Z,5.2
2018-01-20T06:04:19.430Z,4.2
2018-01-20T06:06:18.506Z,4.7
2018-01-20T06:08:19.280Z,4.9
2018-01-20T06:10:18.568Z,4.7
2018-01-20T06:12:19.302Z,4
2018-01-20T06:14:19.062Z,4.4
2018-01-20T06:16:19.144Z,3.2
2018-01-20T06:18:18.989Z,4.8
2018-01-20T06:20:18.759Z,4.8
2018-01-20T06:22:18.526Z,4.5
2018-01-20T06:24:19.297Z,4.8
2018-01-20T06:26:18.570Z,4.5
2018-01-20T06:28:19.378Z,4.5
2018-01-20T06:30:19.147Z,4.7
2018-01-20T06:32:18.882Z,4.4
2018-01-20T06:34:18.636Z,4.3
2018-01-20T06:36:19.177Z,4.6
2018-01-20T06:38:18.931Z,4.6
2018-01-20T06:40:19.203Z,5.2
2018-01-20T06:42:19.011Z,4.2
2018-01-20T06:44:18.745Z,5.1
2018-01-20T06:46:18.837Z,4.5
2018-01-20T06:48:18.592Z,4.8
2018-01-20T06:50:19.364Z,4.7
2018-01-20T06:52:19.125Z,4.6
2018-01-20T06:54:18.884Z,3.9
2018-01-20T06:56:19.008Z,4.9
2018-01-20T06:58:18.775Z,4.9
2018-01-20T07:00:18.541Z,4.9
2018-01-20T07:02:19.308Z,5.4
2018-01-20T07:04:19.046Z,4.1
2018-01-20T07:06:19.094Z,5
2018-01-20T07:08:18.858Z,4.1
2018-01-20T07:10:19.074Z,5
2018-01-20T07:12:18.822Z,4.6
2018-01-20T07:14:18.573Z,4.8
2018-01-20T07:16:18.706Z,5.2
2018-01-20T07:18:18.553Z,4.6
2018-01-20T07:20:19.391Z,5.1
2018-01-20T07:22:19.161Z,4.9
2018-01-20T07:24:18.923Z,4.4
2018-01-20T07:26:19.012Z,5.5
2018-01-20T07:28:18.750Z,5.5
2018-01-20T07:30:18.564Z,5.4
2018-01-20T07:32:19.340Z,4.8
2018-01-20T07:34:19.111Z,4.2
2018-01-20T07:36:18.692Z,5.4
2018-01-20T07:38:19.461Z,5.5
2018-01-20T07:40:18.699Z,5.5
2018-01-20T07:42:19.468Z,4.7
2018-01-20T07:44:19.215Z,5.6
2018-01-20T07:46:18.942Z,4.1
2018-01-20T07:48:18.720Z,4.5
2018-01-20T07:50:18.489Z,3.8
2018-01-20T07:52:19.257Z,4.4
2018-01-20T07:54:18.996Z,4.3
2018-01-20T07:56:19.272Z,5.1
2018-01-20T07:58:19.054Z,4.9
2018-01-20T08:00:18.818Z,4.4
2018-01-20T08:02:18.560Z,5.1
2018-01-20T08:04:19.341Z,4.3
2018-01-20T08:06:19.429Z,4.9
2018-01-20T08:08:19.211Z,4.5
2018-01-20T08:10:19.424Z,5
2018-01-20T08:12:19.180Z,4.7
2018-01-20T08:14:18.950Z,4.3
2018-01-20T08:16:18.662Z,4.3
2018-01-20T08:18:18.499Z,4.7
2018-01-20T08:20:19.250Z,4
2018-01-20T08:22:18.984Z,4.3
2018-01-20T08:24:18.753Z,3.6
2018-01-20T08:26:18.904Z,3.6
2018-01-20T08:28:18.664Z,3.5
2018-01-20T08:30:19.459Z,4.1
2018-01-20T08:32:19.208Z,4
2018-01-20T08:34:18.956Z,4.4
2018-01-20T08:36:18.513Z,4.4
2018-01-20T08:38:19.273Z,3.5
2018-01-20T08:40:18.498Z,4.5
2018-01-20T08:42:19.260Z,4.5
2018-01-20T08:44:19.048Z,4.4
2018-01-20T08:46:19.473Z,4
2018-01-20T08:48:19.241Z,4.4
2018-01-20T08:50:19.006Z,3.7
2018-01-20T08:52:18.756Z,3.7
2018-01-20T08:54:18.493Z,4.9
2018-01-20T08:56:19.067Z,4.5
2018-01-20T08:58:18.827Z,4.5
2018-01-20T09:00:18.693Z,4.1
2018-01-20T09:02:19.496Z,4.1
2018-01-20T09:04:19.265Z,4.3
2018-01-20T09:06:19.318Z,4
2018-01-20T09:08:19.054Z,3.8
2018-01-20T09:10:19.283Z,3.8
2018-01-20T09:12:19.069Z,3.9
2018-01-20T09:14:18.823Z,3.8
2018-01-20T09:16:18.572Z,4.7
2018-01-20T09:18:19.410Z,3.3
2018-01-20T09:20:19.240Z,3.7
2018-01-20T09:22:18.989Z,4.7
2018-01-20T09:24:18.732Z,3.9
2018-01-20T09:26:19.323Z,3.8
2018-01-20T09:28:19.090Z,3.6
2018-01-20T09:30:18.834Z,3.7
2018-01-20T09:32:18.609Z,4.3
2018-01-20T09:34:19.371Z,4.2
2018-01-20T09:36:18.892Z,4.4
2018-01-20T09:38:18.647Z,3.9
2018-01-20T09:40:18.857Z,3.2
2018-01-20T09:42:18.634Z,4.8
2018-01-20T09:44:19.399Z,4
2018-01-20T09:46:18.959Z,3.1
2018-01-20T09:48:18.764Z,3.9
2018-01-20T09:50:18.561Z,2.8
2018-01-20T09:52:19.308Z,2.9
2018-01-20T09:54:19.057Z,3.3
2018-01-20T09:56:18.661Z,4.1
2018-01-20T09:58:19.423Z,3.5
2018-01-20T10:00:19.201Z,3.4
2018-01-20T10:02:18.970Z,3
2018-01-20T10:04:18.726Z,2.7
2018-01-20T10:06:18.967Z,2.8
2018-01-20T10:08:18.719Z,2.5
2018-01-20T10:10:18.975Z,2
2018-01-20T10:12:18.704Z,2.8
2018-01-20T10:14:19.464Z,3.2
2018-01-20T10:16:18.637Z,3
2018-01-20T10:18:19.469Z,3.5
2018-01-20T10:20:19.232Z,2.5
2018-01-20T10:22:19.010Z,2.5
2018-01-20T10:24:18.779Z,2.7
2018-01-20T10:26:18.939Z,2.8
2018-01-20T10:28:18.687Z,2.5
2018-01-20T10:30:19.459Z,2.3
2018-01-20T10:32:19.252Z,2.3
2018-01-20T10:34:19.009Z,2.2
2018-01-20T10:36:18.621Z,2.3
2018-01-20T10:38:19.368Z,2.2
2018-01-20T10:40:18.556Z,1.9
2018-01-20T10:42:19.313Z,1.8
2018-01-20T10:44:19.089Z,2.2
2018-01-20T10:46:18.624Z,2.1
2018-01-20T10:48:19.381Z,2.6
2018-01-20T10:50:19.130Z,2.1
2018-01-20T10:52:18.917Z,2.2
2018-01-20T10:54:18.705Z,1.8
2018-01-20T10:56:18.747Z,1.6
2018-01-20T10:58:18.520Z,1.4
2018-01-20T11:00:19.284Z,2.2
2018-01-20T11:02:19.039Z,2.5
2018-01-20T11:04:18.815Z,1.6
2018-01-20T11:06:18.893Z,2.6
2018-01-20T11:08:18.657Z,1.4
2018-01-20T11:10:18.876Z,1.8
2018-01-20T11:12:18.638Z,1.5
2018-01-20T11:14:19.396Z,2.5
2018-01-20T11:16:19.464Z,2.4
2018-01-20T11:18:19.328Z,1.8
2018-01-20T11:20:19.113Z,2.2
2018-01-20T11:22:18.871Z,2.2
2018-01-20T11:24:18.603Z,1.7
2018-01-20T11:26:19.251Z,2
2018-01-20T11:28:19.000Z,1.6
2018-01-20T11:30:18.778Z,1.7
2018-01-20T11:32:18.551Z,2.1
2018-01-20T11:34:19.351Z,2.4
2018-01-20T11:36:19.413Z,2.7
2018-01-20T11:38:19.158Z,2.3
2018-01-20T11:40:19.400Z,2.4
2018-01-20T11:42:19.033Z,1.5
2018-01-20T11:44:18.789Z,2.1
2018-01-20T11:46:18.882Z,2.9
2018-01-20T11:48:18.632Z,2.5
2018-01-20T11:50:19.437Z,2.4
2018-01-20T11:52:19.222Z,2
2018-01-20T11:54:18.976Z,1.9
2018-01-20T11:56:18.714Z,1.7
2018-01-20T11:58:19.480Z,2.2
2018-01-20T12:00:19.230Z,2
2018-01-20T12:02:19.015Z,1.7
2018-01-20T12:04:18.792Z,1.9
2018-01-20T12:06:19.350Z,1.8
2018-01-20T12:08:19.120Z,2.3
2018-01-20T12:10:19.402Z,2.3
2018-01-20T12:12:19.162Z,3.2
2018-01-20T12:14:18.942Z,3.1
2018-01-20T12:16:19.041Z,2.8
2018-01-20T12:18:18.907Z,6.5
2018-01-20T12:20:18.682Z,3.3
2018-01-20T12:22:19.493Z,3
2018-01-20T12:24:19.236Z,2.6
2018-01-20T12:26:18.894Z,2.7
2018-01-20T12:28:18.670Z,6.1
2018-01-20T12:30:19.471Z,5.1
2018-01-20T12:32:19.267Z,3.8
2018-01-20T12:34:19.029Z,2.9
2018-01-20T12:36:19.090Z,2.4
2018-01-20T12:38:18.888Z,2.9
2018-01-20T12:40:19.126Z,2.8
2018-01-20T12:42:18.886Z,3.2
2018-01-20T12:44:18.646Z,3.1
2018-01-20T12:46:19.189Z,3
2018-01-20T12:48:18.951Z,3.1
2018-01-20T12:50:18.760Z,2.1
2018-01-20T12:52:18.511Z,2.7
2018-01-20T12:54:19.289Z,2.9
2018-01-20T12:56:18.940Z,3.2
2018-01-20T12:58:18.704Z,3
2018-01-20T13:00:19.462Z,3.1
2018-01-20T13:02:19.221Z,3.3
2018-01-20T13:04:18.972Z,2.7
2018-01-20T13:06:18.510Z,3.2
2018-01-20T13:08:19.267Z,2.4
2018-01-20T13:10:19.639Z,3.3
2018-01-20T13:12:19.416Z,3
2018-01-20T13:14:19.188Z,3
2018-01-20T13:16:19.353Z,2.9
2018-01-20T13:18:19.181Z,3
2018-01-20T13:20:18.959Z,3
2018-01-20T13:22:18.731Z,2.5
2018-01-20T13:24:19.481Z,2.7
2018-01-20T13:26:19.020Z,2.9
2018-01-20T13:28:18.764Z,3
2018-01-20T13:30:18.559Z,1.7
2018-01-20T13:32:19.318Z,2.6
2018-01-20T13:34:19.087Z,2.4
2018-01-20T13:36:18.819Z,4.1
2018-01-20T13:38:18.595Z,3.8
2018-01-20T13:40:18.847Z,2.7
2018-01-20T13:42:18.619Z,2.3
2018-01-20T13:44:19.354Z,2.9
2018-01-20T13:46:19.451Z,3
2018-01-20T13:48:19.212Z,2.6
2018-01-20T13:50:18.968Z,3.5
2018-01-20T13:52:18.723Z,2.6
2018-01-20T13:54:18.500Z,2.3
2018-01-20T13:56:19.108Z,2.9
2018-01-20T13:58:18.884Z,2.6
2018-01-20T14:00:18.665Z,2.7
2018-01-20T14:02:19.433Z,2.4
2018-01-20T14:04:19.187Z,2.4
2018-01-20T14:06:19.325Z,3.2
2018-01-20T14:08:19.103Z,2.8
2018-01-20T14:10:19.391Z,3.4
2018-01-20T14:12:19.150Z,2.9
2018-01-20T14:14:18.916Z,2.7
2018-01-20T14:16:19.044Z,3.2
2018-01-20T14:18:18.856Z,3.2
2018-01-20T14:20:18.625Z,2.8
2018-01-20T14:22:19.412Z,2.5
2018-01-20T14:24:19.182Z,2.4
2018-01-20T14:26:18.582Z,2.2
2018-01-20T14:28:19.334Z,2.9
2018-01-20T14:30:19.109Z,2.5
2018-01-20T14:32:18.862Z,2.7
2018-01-20T14:34:18.620Z,3
2018-01-20T14:36:19.212Z,2.9
2018-01-20T14:38:18.976Z,2.8
2018-01-20T14:40:19.194Z,2.3
2018-01-20T14:42:18.971Z,2.6
2018-01-20T14:44:18.730Z,2.6
2018-01-20T14:46:18.879Z,4.3
2018-01-20T14:48:18.638Z,3.4
2018-01-20T14:50:19.418Z,2.6
2018-01-20T14:52:19.183Z,3.1
2018-01-20T14:54:18.946Z,2.5
2018-01-20T14:56:18.504Z,2.8
2018-01-20T14:58:19.261Z,3.1
2018-01-20T15:00:19.013Z,3.1
2018-01-20T15:02:18.781Z,2.9
2018-01-20T15:04:18.568Z,2.4
2018-01-20T15:06:19.140Z,2.7
2018-01-20T15:08:18.912Z,2.9
2018-01-20T15:10:19.218Z,3.1
2018-01-20T15:12:18.995Z,3.4
2018-01-20T15:14:18.765Z,3.2
2018-01-20T15:16:19.320Z,3.4
2018-01-20T15:18:19.142Z,3.6
2018-01-20T15:20:18.911Z,3.3
2018-01-20T15:22:18.672Z,2.6
2018-01-20T15:24:19.445Z,2.9
2018-01-20T15:26:19.138Z,3
2018-01-20T15:28:18.893Z,2.5
2018-01-20T15:30:18.643Z,2.8
2018-01-20T15:32:19.425Z,2.9
2018-01-20T15:34:19.170Z,3.8
2018-01-20T15:36:18.736Z,3.4
2018-01-20T15:38:18.494Z,3.9
2018-01-20T15:40:18.733Z,3.1
2018-01-20T15:42:19.280Z,3.4
2018-01-20T15:44:19.056Z,3
2018-01-20T15:46:18.642Z,2.7
2018-01-20T15:48:19.428Z,2.9
2018-01-20T15:50:19.282Z,3.1
2018-01-20T15:52:19.076Z,2.9
2018-01-20T15:54:18.859Z,3.3
2018-01-20T15:56:19.466Z,3
2018-01-20T15:58:19.234Z,2.4
2018-01-20T16:00:19.013Z,2.8
2018-01-20T16:02:18.839Z,2.9
2018-01-20T16:04:18.680Z,2.8
2018-01-20T16:06:19.369Z,2.9
2018-01-20T16:08:19.142Z,3
2018-01-20T16:10:19.388Z,3.2
2018-01-20T16:12:19.132Z,3.6
2018-01-20T16:14:18.916Z,4.4
2018-01-20T16:16:19.471Z,3.7
2018-01-20T16:18:19.290Z,10.7
2018-01-20T16:20:19.085Z,11.4
2018-01-20T16:22:18.829Z,12.5
2018-01-20T16:24:18.587Z,14.1
2018-01-20T16:26:18.841Z,18.8
2018-01-20T16:28:18.600Z,22.9
2018-01-20T16:30:19.369Z,25.1
2018-01-20T16:32:19.110Z,27.2
2018-01-20T16:34:18.860Z,21.4
2018-01-20T16:36:19.486Z,16.7
2018-01-20T16:38:19.234Z,14
2018-01-20T16:40:19.451Z,13.4
2018-01-20T16:42:19.219Z,10.3
2018-01-20T16:44:18.982Z,10
2018-01-20T16:46:19.027Z,12.7
2018-01-20T16:48:18.779Z,12.8
2018-01-20T16:50:18.515Z,18
2018-01-20T16:52:19.281Z,20.2
2018-01-20T16:54:19.030Z,22.9
2018-01-20T16:56:19.207Z,18.8
2018-01-20T16:58:18.967Z,12.7
2018-01-20T17:00:18.725Z,9.2
2018-01-20T17:02:19.507Z,9.3
2018-01-20T17:04:19.266Z,8.8
2018-01-20T17:06:18.853Z,14.1
2018-01-20T17:08:18.621Z,14.6
2018-01-20T17:10:18.845Z,16.6
2018-01-20T17:12:18.615Z,17.4
2018-01-20T17:14:19.352Z,17.8
2018-01-20T17:16:19.057Z,19.4
2018-01-20T17:18:18.869Z,16.6
2018-01-20T17:20:18.630Z,12.9
2018-01-20T17:22:19.404Z,12.3
2018-01-20T17:24:19.163Z,17.6
2018-01-20T17:26:19.298Z,11.4
2018-01-20T17:28:19.037Z,19.7
2018-01-20T17:30:18.817Z,24.5
2018-01-20T17:32:18.593Z,25.3
2018-01-20T17:34:19.345Z,26.7
2018-01-20T17:36:19.445Z,25.1
2018-01-20T17:38:19.229Z,21.5
2018-01-20T17:40:19.444Z,21.9
2018-01-20T17:42:19.328Z,19
2018-01-20T17:44:19.080Z,16
2018-01-20T17:46:18.836Z,15
2018-01-20T17:48:18.608Z,11.4
2018-01-20T17:50:19.405Z,8.6
2018-01-20T17:52:19.171Z,8.2
2018-01-20T17:54:18.949Z,8.3
2018-01-20T17:56:19.484Z,7.2
2018-01-20T17:58:19.252Z,4.7
2018-01-20T18:00:19.028Z,6
2018-01-20T18:02:18.780Z,6.3
2018-01-20T18:04:18.529Z,5.8
2018-01-20T18:06:19.046Z,5.8
2018-01-20T18:08:18.806Z,9.8
2018-01-20T18:10:19.032Z,14.9
2018-01-20T18:12:18.791Z,18.7
2018-01-20T18:14:18.555Z,18.4
2018-01-20T18:16:18.730Z,17.5
2018-01-20T18:18:18.631Z,14
2018-01-20T18:20:19.404Z,12.7
2018-01-20T18:22:19.163Z,13.7
2018-01-20T18:24:18.925Z,11
2018-01-20T18:26:18.624Z,9.6
2018-01-20T18:28:19.374Z,7.5
2018-01-20T18:30:19.167Z,6.2
2018-01-20T18:32:18.984Z,5.7
2018-01-20T18:34:18.769Z,7
2018-01-20T18:36:19.335Z,5.9
2018-01-20T18:38:19.116Z,5.8
2018-01-20T18:40:19.369Z,5.3
2018-01-20T18:42:19.113Z,5.3
2018-01-20T18:44:18.879Z,4.9
2018-01-20T18:46:19.434Z,5.6
2018-01-20T18:48:19.194Z,5.3
2018-01-20T18:50:18.961Z,3.7
2018-01-20T18:52:18.722Z,5.1
2018-01-20T18:54:19.478Z,4.3
2018-01-20T18:56:19.053Z,4.5
2018-01-20T18:58:18.824Z,4.6
2018-01-20T19:00:18.605Z,4.4
2018-01-20T19:02:19.397Z,4.7
2018-01-20T19:04:19.148Z,5.3
2018-01-20T19:06:18.784Z,5.1
2018-01-20T19:08:18.542Z,5.5
2018-01-20T19:10:18.765Z,9.6
2018-01-20T19:12:18.536Z,11.3
2018-01-20T19:14:19.287Z,9.6
2018-01-20T19:16:18.872Z,6.8
2018-01-20T19:18:18.688Z,6
2018-01-20T19:20:19.441Z,6.3
2018-01-20T19:22:19.180Z,6.2
2018-01-20T19:24:18.938Z,5.6
2018-01-20T19:26:19.130Z,5.7
2018-01-20T19:28:18.900Z,4.9
2018-01-20T19:30:18.710Z,5.3
2018-01-20T19:32:19.464Z,6.2
2018-01-20T19:34:19.227Z,6.2
2018-01-20T19:36:18.803Z,6.8
2018-01-20T19:38:18.578Z,6.3
2018-01-20T19:40:18.826Z,6.5
2018-01-20T19:42:18.565Z,5.3
2018-01-20T19:44:19.333Z,5.7
2018-01-20T19:46:18.854Z,7
2018-01-20T19:48:18.618Z,6.1
2018-01-20T19:50:19.370Z,6.8
2018-01-20T19:52:19.119Z,5.6
2018-01-20T19:54:18.875Z,6
2018-01-20T19:56:19.013Z,6.1
2018-01-20T19:58:18.778Z,6.3
2018-01-20T20:00:18.525Z,7.5
2018-01-20T20:02:19.263Z,7
2018-01-20T20:04:18.991Z,6.8
2018-01-20T20:06:19.091Z,6.7
2018-01-20T20:08:18.853Z,6.9
2018-01-20T20:10:19.096Z,7.3
2018-01-20T20:12:18.834Z,8.1
2018-01-20T20:14:18.573Z,5.4
2018-01-20T20:16:19.179Z,6.1
2018-01-20T20:18:19.062Z,6.7
2018-01-20T20:20:18.814Z,6.8
2018-01-20T20:22:18.570Z,6.5
2018-01-20T20:24:19.313Z,6.5
2018-01-20T20:26:18.838Z,6.8
2018-01-20T20:28:18.616Z,7.8
2018-01-20T20:30:19.431Z,6.5
2018-01-20T20:32:18.522Z,7.3
2018-01-20T20:34:19.272Z,8.2
2018-01-20T20:36:18.763Z,7.5
2018-01-20T20:38:18.513Z,7
2018-01-20T20:40:18.745Z,7.4
2018-01-20T20:42:18.494Z,6.9
2018-01-20T20:44:19.252Z,6.9
2018-01-20T20:46:18.823Z,6.8
2018-01-20T20:48:18.572Z,6.8
2018-01-20T20:50:19.356Z,6.3
2018-01-20T20:52:19.119Z,5.2
2018-01-20T20:54:18.863Z,6.9
2018-01-20T20:56:19.003Z,6.5
2018-01-20T20:58:18.769Z,6.4
2018-01-20T21:00:18.497Z,5.9
2018-01-20T21:02:19.256Z,6.4
2018-01-20T21:04:19.037Z,7.2
2018-01-20T21:06:18.747Z,7.3
2018-01-20T21:08:18.506Z,5.7
2018-01-20T21:10:18.734Z,7.6
2018-01-20T21:12:18.518Z,6.4
2018-01-20T21:14:19.273Z,6.6
2018-01-20T21:16:19.408Z,7.4
2018-01-20T21:18:19.240Z,6
2018-01-20T21:20:18.991Z,6
2018-01-20T21:22:18.763Z,6.4
2018-01-20T21:24:18.529Z,6.4
2018-01-20T21:26:19.093Z,6.7
2018-01-20T21:28:18.882Z,6.8
2018-01-20T21:30:18.621Z,7.5
2018-01-20T21:32:19.385Z,6.9
2018-01-20T21:34:19.157Z,8
2018-01-20T21:36:18.809Z,7.4
2018-01-20T21:38:18.571Z,5.8
2018-01-20T21:40:18.773Z,8.2
2018-01-20T21:42:18.525Z,6.5
2018-01-20T21:44:19.261Z,6.3
2018-01-20T21:46:19.342Z,5.9
2018-01-20T21:48:19.100Z,7.2
2018-01-20T21:50:18.872Z,6
2018-01-20T21:52:18.628Z,6.9
2018-01-20T21:54:19.376Z,5.8
2018-01-20T21:56:19.451Z,6.4
2018-01-20T21:58:19.209Z,7.3
2018-01-20T22:00:18.976Z,7.9
2018-01-20T22:02:18.719Z,7.5
2018-01-20T22:04:18.486Z,9.1
2018-01-20T22:06:19.200Z,5.6
2018-01-20T22:08:18.941Z,7.2
2018-01-20T22:10:19.162Z,6.4
2018-01-20T22:12:18.926Z,7.4
2018-01-20T22:14:18.680Z,6
2018-01-20T22:16:19.221Z,5.6
2018-01-20T22:18:19.035Z,6
2018-01-20T22:20:18.813Z,6
2018-01-20T22:22:18.558Z,7.1
2018-01-20T22:24:19.284Z,6.4
2018-01-20T22:26:19.367Z,6.5
2018-01-20T22:28:19.115Z,6.6
2018-01-20T22:30:18.878Z,6.1
2018-01-20T22:32:18.636Z,5
2018-01-20T22:34:19.397Z,6.6
2018-01-20T22:36:18.556Z,6.3
2018-01-20T22:38:19.292Z,6.2
2018-01-20T22:40:18.523Z,5.7
2018-01-20T22:42:19.269Z,7.7
2018-01-20T22:44:18.982Z,6.6
2018-01-20T22:46:19.021Z,6.5
2018-01-20T22:48:18.789Z,6.1
2018-01-20T22:50:18.555Z,6.5
2018-01-20T22:52:19.359Z,5.8
2018-01-20T22:54:19.117Z,6.4
2018-01-20T22:56:18.713Z,6.6
2018-01-20T22:58:18.463Z,6.3
2018-01-20T23:00:19.220Z,5.9
2018-01-20T23:02:18.970Z,5.8
2018-01-20T23:04:18.716Z,7.6
2018-01-20T23:06:19.286Z,7.7
2018-01-20T23:08:19.102Z,6
2018-01-20T23:10:19.319Z,6.6
2018-01-20T23:12:19.062Z,6
2018-01-20T23:14:18.813Z,6.5
2018-01-20T23:16:18.553Z,5
2018-01-20T23:18:19.397Z,6
2018-01-20T23:20:19.204Z,5.7
2018-01-20T23:22:18.952Z,5.5
2018-01-20T23:24:18.722Z,5.2
2018-01-20T23:26:19.346Z,5
2018-01-20T23:28:19.130Z,6.1
2018-01-20T23:30:18.881Z,6.1
2018-01-20T23:32:18.620Z,5.7
2018-01-20T23:34:19.375Z,5.6
2018-01-20T23:36:18.907Z,5.4
2018-01-20T23:38:18.658Z,5.3
2018-01-20T23:40:18.894Z,6.2
2018-01-20T23:42:18.637Z,5.2
2018-01-20T23:44:19.362Z,5.5
2018-01-20T23:46:19.417Z,5.7
2018-01-20T23:48:19.175Z,6.3
2018-01-20T23:50:18.933Z,5.8
2018-01-20T23:52:18.695Z,5.9
2018-01-20T23:54:19.419Z,6.2
2018-01-20T23:56:18.934Z,5.2
2018-01-20T23:58:18.695Z,5.9
